KSHR

Sheridan County Airport

Sheridan, Wyoming, USA
METAR KSHR 170253Z AUTO 16004KT 10SM CLR 03/00 A3036 RMK AO2 SLP302 T00330000 52005
Observed Flight Rules
Oct-17 @ 02:53 UTC (16 minutes ago) Visual Flight Rules
Wind Visibility Clouds
160° at 4 knots 10 miles
  • Clear skies
Temperatures Readings
Current 3°C / 37°F
Dewpoint 0°C / 32°F
Humidity 81%
Altimeter 30.36" Hg
Pressure 1030.2 hPa
Elevation 1202
METAR KSHR 170253Z AUTO 16004KT 10SM CLR 03/00 A3036 RMK AO2 SLP302 T00330000 52005
Observed Flight Rules
Oct-17 @ 02:53 UTC
(16 minutes ago)
VFR
Wind Visibility
160° at 4 knots 10 miles
Clouds
  • Clear skies
Temperature Dewpoint
3°C / 37°F 0°C / 32°F
Humidity Altimeter Pressure
81% 30.36" Hg 1030.2 hPa